createdAt,value
2023-04-15T00:01:12.276Z,69.08
2023-04-15T00:03:39.916Z,69.16
2023-04-15T00:06:07.012Z,69.16
2023-04-15T00:08:33.722Z,69.36
2023-04-15T00:11:03.209Z,69.48
2023-04-15T00:13:30.191Z,69.51
2023-04-15T00:15:56.901Z,69.46
2023-04-15T00:18:24.950Z,69.72
2023-04-15T00:20:52.603Z,69.79
2023-04-15T00:23:19.565Z,69.75
2023-04-15T00:25:47.004Z,69.72
2023-04-15T00:28:13.940Z,69.98
2023-04-15T00:30:40.591Z,70.11
2023-04-15T00:33:08.126Z,70.19
2023-04-15T00:35:36.705Z,70.37
2023-04-15T00:38:04.789Z,70.25
2023-04-15T00:40:31.661Z,70.60
2023-04-15T00:42:58.426Z,70.71
2023-04-15T00:45:26.136Z,70.96
2023-04-15T00:48:01.725Z,70.43
2023-04-15T00:50:33.501Z,70.57
2023-04-15T00:53:00.147Z,70.68
2023-04-15T00:55:27.121Z,70.74
2023-04-15T00:57:54.314Z,70.63
2023-04-15T01:00:21.218Z,70.91
2023-04-15T01:02:47.965Z,70.83
2023-04-15T01:05:17.337Z,71.07
2023-04-15T01:07:44.038Z,71.18
2023-04-15T01:10:10.950Z,71.36
2023-04-15T01:12:38.204Z,71.47
2023-04-15T01:15:05.836Z,71.36
2023-04-15T01:17:33.074Z,71.58
2023-04-15T01:19:59.730Z,71.56
2023-04-15T01:22:28.029Z,71.75
2023-04-15T01:25:02.465Z,71.75
2023-04-15T01:27:29.413Z,71.72
2023-04-15T01:29:56.076Z,71.74
2023-04-15T01:32:22.816Z,71.60
2023-04-15T01:34:49.701Z,71.68
2023-04-15T01:37:16.368Z,71.63
2023-04-15T01:39:43.233Z,71.92
2023-04-15T01:42:10.068Z,72.20
2023-04-15T01:44:36.662Z,72.36
2023-04-15T01:47:03.367Z,72.35
2023-04-15T01:49:30.019Z,72.52
2023-04-15T01:51:56.649Z,72.68
2023-04-15T01:54:23.417Z,72.43
2023-04-15T01:56:50.114Z,72.37
2023-04-15T01:59:16.895Z,72.08
2023-04-15T02:01:43.824Z,71.96
2023-04-15T02:04:16.565Z,72.36
2023-04-15T02:06:43.885Z,72.40
2023-04-15T02:09:10.743Z,72.16
2023-04-15T02:11:37.615Z,72.44
2023-04-15T02:14:07.299Z,72.23
2023-04-15T02:16:34.332Z,72.37
2023-04-15T02:19:02.209Z,72.35
2023-04-15T02:21:29.140Z,72.01
2023-04-15T02:23:56.386Z,72.34
2023-04-15T02:26:23.325Z,72.38
2023-04-15T02:28:51.514Z,72.68
2023-04-15T02:31:18.593Z,72.21
2023-04-15T02:33:45.621Z,72.39
2023-04-15T02:36:12.532Z,72.68
2023-04-15T02:38:41.334Z,72.66
2023-04-15T02:41:08.661Z,72.83
2023-04-15T02:43:35.573Z,73.02
2023-04-15T02:46:02.339Z,72.78
2023-04-15T02:48:29.271Z,72.84
2023-04-15T02:51:11.758Z,73.00
2023-04-15T02:53:38.429Z,72.76
2023-04-15T02:56:06.173Z,72.30
2023-04-15T02:58:32.846Z,72.44
2023-04-15T03:00:59.771Z,72.59
2023-04-15T03:03:28.213Z,72.68
2023-04-15T03:05:55.109Z,72.47
2023-04-15T03:08:21.801Z,72.38
2023-04-15T03:10:49.440Z,72.33
2023-04-15T03:13:16.153Z,72.18
2023-04-15T03:15:42.838Z,72.54
2023-04-15T03:18:09.489Z,72.49
2023-04-15T03:20:36.816Z,72.28
2023-04-15T03:23:03.526Z,72.27
2023-04-15T03:25:30.296Z,72.30
2023-04-15T03:27:56.991Z,72.31
2023-04-15T03:30:23.945Z,72.22
2023-04-15T03:32:50.716Z,72.29
2023-04-15T03:35:17.725Z,72.35
2023-04-15T03:37:44.540Z,72.22
2023-04-15T03:40:11.597Z,72.37
2023-04-15T03:42:38.251Z,72.60
2023-04-15T03:45:05.514Z,72.42
2023-04-15T03:47:32.207Z,72.53
2023-04-15T03:49:59.020Z,72.51
2023-04-15T03:52:26.160Z,72.57
2023-04-15T03:54:53.097Z,72.96
2023-04-15T03:57:19.694Z,73.01
2023-04-15T03:59:46.291Z,73.03
2023-04-15T04:02:12.961Z,72.86
2023-04-15T04:04:39.830Z,72.90
2023-04-15T04:07:06.770Z,73.18
2023-04-15T04:09:33.467Z,73.02
2023-04-15T04:12:00.247Z,72.85
2023-04-15T04:14:29.842Z,73.11
2023-04-15T04:16:57.514Z,73.29
2023-04-15T04:19:24.569Z,73.44
2023-04-15T04:21:51.786Z,73.43
2023-04-15T04:24:18.541Z,73.51
2023-04-15T04:26:45.243Z,73.76
2023-04-15T04:29:12.559Z,73.56
2023-04-15T04:31:39.207Z,73.85
2023-04-15T04:34:06.201Z,73.95
2023-04-15T04:36:32.900Z,74.00
2023-04-15T04:38:59.898Z,74.05
2023-04-15T04:41:26.889Z,74.21
2023-04-15T04:43:53.577Z,74.50
2023-04-15T04:46:20.671Z,74.71
2023-04-15T04:48:47.471Z,74.71
2023-04-15T04:51:14.106Z,75.00
2023-04-15T04:53:40.762Z,75.25
2023-04-15T04:56:07.652Z,74.88
2023-04-15T04:58:34.259Z,75.02
2023-04-15T05:01:01.034Z,75.01
2023-04-15T05:03:27.753Z,75.46
2023-04-15T05:05:54.805Z,75.21
2023-04-15T05:08:21.550Z,75.39
2023-04-15T05:10:48.510Z,75.43
2023-04-15T05:13:15.254Z,75.36
2023-04-15T05:15:43.377Z,75.51
2023-04-15T05:18:10.220Z,75.66
2023-04-15T05:20:36.978Z,75.67
2023-04-15T05:23:03.720Z,75.99
2023-04-15T05:25:30.538Z,76.06
2023-04-15T05:27:57.209Z,76.14
2023-04-15T05:30:23.845Z,76.44
2023-04-15T05:32:50.590Z,76.60
2023-04-15T05:35:17.585Z,76.68
2023-04-15T05:37:44.237Z,76.63
2023-04-15T05:40:11.438Z,76.71
2023-04-15T05:42:38.148Z,76.82
2023-04-15T05:45:09.206Z,77.04
2023-04-15T05:47:37.700Z,77.12
2023-04-15T05:50:04.897Z,77.24
2023-04-15T05:52:32.074Z,77.27
2023-04-15T05:54:58.675Z,77.42
2023-04-15T05:57:25.357Z,77.30
2023-04-15T05:59:52.851Z,77.10
2023-04-15T06:02:19.805Z,77.42
2023-04-15T06:04:46.562Z,77.25
2023-04-15T06:07:13.481Z,77.39
2023-04-15T06:09:40.762Z,77.72
2023-04-15T06:12:12.147Z,77.66
2023-04-15T06:14:39.456Z,77.42
2023-04-15T06:17:07.430Z,77.72
2023-04-15T06:19:34.699Z,77.61
2023-04-15T06:22:01.884Z,77.75
2023-04-15T06:24:29.191Z,77.56
2023-04-15T06:26:56.328Z,77.43
2023-04-15T06:29:23.046Z,77.39
2023-04-15T06:31:50.408Z,77.50
2023-04-15T06:34:17.265Z,77.33
2023-04-15T06:36:44.094Z,77.37
2023-04-15T06:39:10.678Z,77.03
2023-04-15T06:41:37.407Z,76.73
2023-04-15T06:44:04.178Z,76.22
2023-04-15T06:46:32.604Z,76.06
2023-04-15T06:48:59.346Z,75.71
2023-04-15T06:51:26.817Z,75.12
2023-04-15T06:53:54.081Z,74.82
2023-04-15T06:56:20.808Z,74.19
2023-04-15T06:58:47.456Z,73.36
2023-04-15T07:01:14.416Z,72.55
2023-04-15T07:03:42.020Z,71.84
2023-04-15T07:06:09.557Z,70.62
2023-04-15T07:08:36.318Z,69.65
2023-04-15T07:11:03.045Z,69.06
2023-04-15T07:13:31.828Z,68.30
2023-04-15T07:15:58.829Z,68.34
2023-04-15T07:18:25.635Z,67.15
2023-04-15T07:20:52.737Z,66.36
2023-04-15T07:23:19.593Z,65.41
2023-04-15T07:25:46.211Z,64.75
2023-04-15T07:28:13.013Z,64.37
2023-04-15T07:30:39.899Z,63.60
2023-04-15T07:33:07.069Z,63.37
2023-04-15T07:35:37.161Z,62.59
2023-04-15T07:38:04.046Z,62.05
2023-04-15T07:40:30.711Z,61.40
2023-04-15T07:42:58.524Z,61.00
2023-04-15T07:45:25.299Z,60.27
2023-04-15T07:47:52.063Z,60.17
2023-04-15T07:50:19.837Z,59.28
2023-04-15T07:52:46.581Z,58.85
2023-04-15T07:55:13.309Z,58.47
2023-04-15T07:57:40.110Z,58.41
2023-04-15T08:00:10.456Z,57.79
2023-04-15T08:02:39.674Z,57.36
2023-04-15T08:05:11.018Z,57.04
2023-04-15T08:07:39.735Z,55.89
2023-04-15T08:10:07.477Z,55.70
2023-04-15T08:12:34.496Z,55.07
2023-04-15T08:15:02.612Z,55.04
2023-04-15T08:17:29.263Z,54.75
2023-04-15T08:19:56.107Z,54.05
2023-04-15T08:22:23.229Z,53.47
2023-04-15T08:24:49.899Z,53.45
2023-04-15T08:27:17.046Z,53.08
2023-04-15T08:29:44.187Z,53.09
2023-04-15T08:32:10.835Z,52.68
2023-04-15T08:34:38.442Z,52.14
2023-04-15T08:37:05.056Z,51.38
2023-04-15T08:39:31.725Z,51.16
2023-04-15T08:42:02.958Z,50.53
2023-04-15T08:44:32.353Z,50.32
2023-04-15T08:47:02.893Z,49.67
2023-04-15T08:49:30.640Z,49.40
2023-04-15T08:51:59.691Z,48.82
2023-04-15T08:54:28.247Z,48.62
2023-04-15T08:56:55.334Z,48.97
2023-04-15T08:59:22.415Z,48.41
2023-04-15T09:01:51.541Z,48.64
2023-04-15T09:04:18.675Z,48.46
2023-04-15T09:06:45.824Z,47.67
2023-04-15T09:09:14.549Z,47.57
2023-04-15T09:11:42.482Z,46.72
2023-04-15T09:14:09.393Z,46.36
2023-04-15T09:16:58.950Z,46.50
2023-04-15T09:19:28.024Z,46.75
2023-04-15T09:21:59.435Z,46.63
2023-04-15T09:24:33.964Z,46.46
2023-04-15T09:27:00.699Z,46.08
2023-04-15T09:29:28.355Z,46.04
2023-04-15T09:31:55.122Z,46.11
2023-04-15T09:34:22.831Z,45.85
2023-04-15T09:36:57.034Z,45.67
2023-04-15T09:39:23.893Z,46.06
2023-04-15T09:42:09.025Z,45.94
2023-04-15T09:44:35.926Z,46.31
2023-04-15T09:47:02.576Z,46.27
2023-04-15T09:49:29.457Z,46.17
2023-04-15T09:52:06.152Z,46.57
2023-04-15T09:54:37.995Z,46.21
2023-04-15T09:57:10.375Z,46.57
2023-04-15T09:59:37.439Z,47.32
2023-04-15T10:02:07.825Z,48.12
2023-04-15T10:04:40.146Z,48.98
2023-04-15T10:07:09.539Z,48.79
2023-04-15T10:09:36.966Z,48.96
2023-04-15T10:12:05.641Z,48.56
2023-04-15T10:14:35.268Z,47.72
2023-04-15T10:17:04.290Z,47.54
2023-04-15T10:21:56.130Z,46.84
2023-04-15T10:24:24.699Z,46.33
2023-04-15T10:26:55.589Z,45.29
2023-04-15T10:29:27.058Z,45.04
2023-04-15T10:31:56.482Z,44.85
2023-04-15T10:34:27.925Z,45.06
2023-04-15T10:37:05.038Z,44.46
2023-04-15T10:39:35.082Z,43.79
2023-04-15T10:42:09.862Z,43.44
2023-04-15T10:44:42.495Z,43.14
2023-04-15T10:47:14.899Z,42.76
2023-04-15T10:49:48.010Z,42.42
2023-04-15T10:52:16.976Z,42.46
2023-04-15T10:54:44.504Z,42.69
2023-04-15T10:57:17.558Z,41.90
2023-04-15T10:59:59.927Z,40.60
2023-04-15T11:02:40.523Z,39.75
2023-04-15T11:05:09.232Z,39.05
2023-04-15T11:07:52.293Z,38.52
2023-04-15T11:10:21.601Z,37.72
2023-04-15T11:12:52.147Z,37.40
2023-04-15T11:15:31.284Z,37.36
2023-04-15T11:18:11.314Z,36.88
2023-04-15T11:20:40.393Z,36.60
2023-04-15T11:23:14.130Z,36.45
2023-04-15T11:25:41.866Z,36.31
2023-04-15T11:28:08.891Z,36.35
2023-04-15T11:30:37.675Z,36.78
2023-04-15T11:33:09.439Z,36.65
2023-04-15T11:35:36.799Z,37.32
2023-04-15T11:38:10.300Z,37.12
2023-04-15T11:40:38.168Z,36.77
2023-04-15T11:43:12.240Z,36.51
2023-04-15T11:45:58.050Z,37.38
2023-04-15T11:48:33.295Z,36.77
2023-04-15T11:51:05.526Z,36.38
2023-04-15T11:53:51.177Z,36.05
2023-04-15T11:56:23.424Z,35.71
2023-04-15T11:59:00.073Z,35.46
2023-04-15T12:01:40.054Z,35.26
2023-04-15T12:04:15.845Z,34.44
2023-04-15T12:06:43.109Z,33.95
2023-04-15T12:09:12.352Z,33.93
2023-04-15T12:11:53.212Z,33.41
2023-04-15T12:14:31.182Z,33.13
2023-04-15T12:17:02.116Z,33.19
2023-04-15T12:19:35.691Z,32.75
2023-04-15T12:22:04.688Z,32.64
2023-04-15T12:24:33.203Z,33.63
2023-04-15T12:27:05.690Z,33.24
2023-04-15T12:29:34.339Z,33.51
2023-04-15T12:32:11.179Z,32.92
2023-04-15T12:34:40.924Z,33.04
2023-04-15T12:37:10.279Z,32.12
2023-04-15T12:39:42.275Z,31.45
2023-04-15T12:42:10.285Z,30.91
2023-04-15T12:44:37.977Z,30.74
2023-04-15T12:47:05.016Z,30.98
2023-04-15T12:49:32.875Z,31.25
2023-04-15T12:52:01.934Z,31.31
2023-04-15T12:54:30.874Z,31.66
2023-04-15T12:56:58.518Z,31.59
2023-04-15T12:59:27.859Z,32.03
2023-04-15T13:01:54.932Z,31.70
2023-04-15T13:04:22.401Z,31.45
2023-04-15T13:06:49.563Z,31.44
2023-04-15T13:09:16.471Z,31.65
2023-04-15T13:11:43.439Z,31.70
2023-04-15T13:14:14.298Z,31.92
2023-04-15T13:16:41.510Z,32.33
2023-04-15T13:19:08.668Z,32.45
2023-04-15T13:21:36.409Z,32.12
2023-04-15T13:24:04.389Z,32.29
2023-04-15T13:26:31.856Z,32.20
2023-04-15T13:28:58.848Z,32.35
2023-04-15T13:31:25.618Z,32.32
2023-04-15T13:33:52.508Z,32.25
2023-04-15T13:36:19.557Z,32.20
2023-04-15T13:38:47.119Z,32.13
2023-04-15T13:41:14.755Z,32.17
2023-04-15T13:43:41.617Z,32.25
2023-04-15T13:46:08.606Z,32.52
2023-04-15T13:48:36.021Z,32.64
2023-04-15T13:51:02.644Z,32.70
2023-04-15T13:53:37.980Z,32.83
2023-04-15T13:56:07.914Z,33.01
2023-04-15T13:58:34.621Z,33.08
2023-04-15T14:01:03.210Z,33.90
2023-04-15T14:03:32.068Z,33.49
2023-04-15T14:05:59.494Z,33.92
2023-04-15T14:08:26.169Z,34.43
2023-04-15T14:10:52.956Z,34.94
2023-04-15T14:13:19.815Z,35.13
2023-04-15T14:15:46.795Z,35.45
2023-04-15T14:18:13.500Z,35.82
2023-04-15T14:20:40.344Z,36.29
2023-04-15T14:23:07.020Z,36.83
2023-04-15T14:25:34.292Z,36.92
2023-04-15T14:28:02.042Z,36.75
2023-04-15T14:30:28.770Z,37.01
2023-04-15T14:32:55.616Z,36.81
2023-04-15T14:35:22.789Z,37.01
2023-04-15T14:37:49.403Z,36.44
2023-04-15T14:40:16.331Z,36.11
2023-04-15T14:42:43.122Z,35.84
2023-04-15T14:45:10.637Z,35.78
2023-04-15T14:47:37.610Z,35.48
2023-04-15T14:50:04.687Z,35.03
2023-04-15T14:52:38.925Z,35.10
2023-04-15T14:55:07.752Z,35.17
2023-04-15T14:57:34.358Z,34.87
2023-04-15T15:00:01.019Z,34.73
2023-04-15T15:02:38.284Z,35.22
2023-04-15T15:05:06.150Z,35.28
2023-04-15T15:07:33.193Z,35.24
2023-04-15T15:09:59.819Z,34.92
2023-04-15T15:12:26.462Z,35.03
2023-04-15T15:14:56.017Z,35.30
2023-04-15T15:17:22.766Z,35.30
2023-04-15T15:19:49.509Z,35.44
2023-04-15T15:22:16.170Z,35.46
2023-04-15T15:24:43.159Z,35.87
2023-04-15T15:27:10.201Z,35.81
2023-04-15T15:29:38.070Z,35.98
2023-04-15T15:32:04.914Z,35.91
2023-04-15T15:34:31.596Z,35.72
2023-04-15T15:36:58.436Z,35.26
2023-04-15T15:39:25.083Z,35.25
2023-04-15T15:41:51.735Z,35.41
2023-04-15T15:44:18.726Z,35.57
2023-04-15T15:46:45.729Z,36.34
2023-04-15T15:49:12.855Z,36.38
2023-04-15T15:51:39.704Z,36.48
2023-04-15T15:54:06.523Z,36.68
2023-04-15T15:56:34.478Z,36.68
2023-04-15T15:59:02.042Z,36.54
2023-04-15T16:01:28.862Z,36.79
2023-04-15T16:03:55.787Z,36.99
2023-04-15T16:06:22.826Z,36.97
2023-04-15T16:08:49.494Z,37.66
2023-04-15T16:11:16.170Z,38.16
2023-04-15T16:13:43.111Z,38.97
2023-04-15T16:16:09.790Z,39.63
2023-04-15T16:18:36.729Z,40.21
2023-04-15T16:21:03.610Z,40.52
2023-04-15T16:23:31.806Z,41.09
2023-04-15T16:25:58.532Z,41.19
2023-04-15T16:28:27.101Z,40.98
2023-04-15T16:30:55.480Z,40.90
2023-04-15T16:33:22.284Z,40.78
2023-04-15T16:35:49.069Z,40.86
2023-04-15T16:38:15.921Z,41.19
2023-04-15T16:40:42.623Z,40.94
2023-04-15T16:43:11.395Z,41.36
2023-04-15T16:45:38.369Z,41.91
2023-04-15T16:48:05.291Z,42.47
2023-04-15T16:50:32.053Z,43.04
2023-04-15T16:52:58.725Z,43.40
2023-04-15T16:55:25.443Z,44.08
2023-04-15T16:58:02.562Z,44.42
2023-04-15T17:00:31.153Z,45.00
2023-04-15T17:02:58.212Z,45.30
2023-04-15T17:05:25.008Z,45.77
2023-04-15T17:07:51.768Z,46.11
2023-04-15T17:10:18.460Z,46.40
2023-04-15T17:12:45.331Z,46.86
2023-04-15T17:15:11.980Z,47.09
2023-04-15T17:17:39.031Z,47.36
2023-04-15T17:20:06.262Z,47.73
2023-04-15T17:22:33.634Z,48.06
2023-04-15T17:25:00.448Z,48.34
2023-04-15T17:27:28.965Z,48.60
2023-04-15T17:29:56.226Z,48.96
2023-04-15T17:32:23.827Z,49.31
2023-04-15T17:34:51.525Z,49.51
2023-04-15T17:37:18.775Z,49.71
2023-04-15T17:39:45.910Z,49.89
2023-04-15T17:42:13.393Z,50.21
2023-04-15T17:44:40.302Z,50.53
2023-04-15T17:47:12.049Z,50.87
2023-04-15T17:49:38.761Z,51.09
2023-04-15T17:52:05.480Z,51.25
2023-04-15T17:54:32.966Z,51.58
2023-04-15T17:57:00.283Z,51.92
2023-04-15T17:59:28.097Z,52.26
2023-04-15T18:01:55.144Z,52.44
2023-04-15T18:04:25.850Z,52.62
2023-04-15T18:06:53.327Z,53.06
2023-04-15T18:09:20.330Z,52.81
2023-04-15T18:11:48.680Z,52.99
2023-04-15T18:14:26.626Z,53.15
2023-04-15T18:16:59.827Z,53.11
2023-04-15T18:19:28.066Z,53.14
2023-04-15T18:21:54.866Z,53.57
2023-04-15T18:24:22.867Z,53.85
2023-04-15T18:26:49.675Z,54.09
2023-04-15T18:29:16.527Z,54.39
2023-04-15T18:31:44.246Z,54.61
2023-04-15T18:34:10.980Z,55.06
2023-04-15T18:36:37.706Z,55.09
2023-04-15T18:39:05.249Z,55.28
2023-04-15T18:41:32.753Z,55.42
2023-04-15T18:43:59.442Z,55.51
2023-04-15T18:46:26.222Z,55.82
2023-04-15T18:48:53.550Z,56.08
2023-04-15T18:51:20.515Z,56.32
2023-04-15T18:53:47.280Z,56.52
2023-04-15T18:56:13.903Z,56.83
2023-04-15T18:59:08.874Z,56.49
2023-04-15T19:01:27.813Z,56.85
2023-04-15T19:03:54.477Z,57.05
2023-04-15T19:06:22.471Z,57.30
2023-04-15T19:08:49.148Z,57.50
2023-04-15T19:11:15.875Z,57.31
2023-04-15T19:13:43.220Z,57.60
2023-04-15T19:16:10.168Z,57.52
2023-04-15T19:18:36.982Z,57.67
2023-04-15T19:21:04.117Z,57.78
2023-04-15T19:23:31.941Z,58.06
2023-04-15T19:25:58.940Z,58.38
2023-04-15T19:28:28.216Z,58.41
2023-04-15T19:30:55.285Z,58.80
2023-04-15T19:33:22.081Z,58.85
2023-04-15T19:35:50.168Z,58.96
2023-04-15T19:38:17.182Z,59.13
2023-04-15T19:40:44.151Z,59.04
2023-04-15T19:43:10.799Z,59.20
2023-04-15T19:45:37.610Z,58.91
2023-04-15T19:48:06.138Z,59.42
2023-04-15T19:50:33.482Z,59.34
2023-04-15T19:53:00.237Z,59.30
2023-04-15T19:55:26.930Z,59.46
2023-04-15T19:57:53.754Z,59.78
2023-04-15T20:00:20.938Z,59.80
2023-04-15T20:02:47.731Z,60.08
2023-04-15T20:05:14.658Z,60.28
2023-04-15T20:07:42.829Z,60.27
2023-04-15T20:10:13.013Z,60.50
2023-04-15T20:12:51.589Z,60.70
2023-04-15T20:15:20.144Z,60.69
2023-04-15T20:17:46.963Z,60.96
2023-04-15T20:20:14.009Z,61.06
2023-04-15T20:22:41.163Z,61.10
2023-04-15T20:25:08.137Z,60.94
2023-04-15T20:27:34.841Z,61.17
2023-04-15T20:30:02.034Z,61.42
2023-04-15T20:32:28.804Z,61.57
2023-04-15T20:34:55.509Z,61.58
2023-04-15T20:37:22.460Z,61.81
2023-04-15T20:39:49.266Z,62.05
2023-04-15T20:42:15.997Z,62.15
2023-04-15T20:44:42.714Z,62.37
2023-04-15T20:47:09.473Z,62.71
2023-04-15T20:49:37.720Z,62.69
2023-04-15T20:52:05.716Z,63.04
2023-04-15T20:54:32.491Z,63.27
2023-04-15T20:56:59.495Z,63.29
2023-04-15T20:59:26.217Z,63.20
2023-04-15T21:01:53.202Z,63.15
2023-04-15T21:04:21.048Z,63.31
2023-04-15T21:06:47.946Z,63.24
2023-04-15T21:09:14.662Z,63.14
2023-04-15T21:11:57.436Z,63.32
2023-04-15T21:14:28.215Z,63.21
2023-04-15T21:16:55.032Z,63.44
2023-04-15T21:19:21.649Z,63.55
2023-04-15T21:21:48.270Z,63.56
2023-04-15T21:24:14.931Z,63.60
2023-04-15T21:26:41.648Z,63.77
2023-04-15T21:29:11.426Z,63.92
2023-04-15T21:31:38.712Z,63.84
2023-04-15T21:34:05.551Z,63.96
2023-04-15T21:36:32.287Z,63.94
2023-04-15T21:38:58.901Z,64.31
2023-04-15T21:41:26.158Z,64.15
2023-04-15T21:43:53.593Z,64.18
2023-04-15T21:46:22.539Z,64.62
2023-04-15T21:48:52.821Z,64.69
2023-04-15T21:51:19.582Z,64.50
2023-04-15T21:53:46.266Z,65.03
2023-04-15T21:56:13.124Z,64.92
2023-04-15T21:58:40.026Z,65.01
2023-04-15T22:01:06.805Z,65.40
2023-04-15T22:03:35.063Z,65.22
2023-04-15T22:06:03.480Z,65.27
2023-04-15T22:08:33.799Z,65.39
2023-04-15T22:11:08.435Z,65.35
2023-04-15T22:13:35.388Z,65.53
2023-04-15T22:16:02.550Z,65.43
2023-04-15T22:18:29.141Z,65.56
2023-04-15T22:20:56.366Z,65.54
2023-04-15T22:23:22.996Z,65.43
2023-04-15T22:25:49.593Z,65.49
2023-04-15T22:28:16.573Z,65.58
2023-04-15T22:30:43.282Z,65.85
2023-04-15T22:33:11.078Z,65.75
2023-04-15T22:35:37.808Z,65.90
2023-04-15T22:38:05.073Z,65.96
2023-04-15T22:40:31.922Z,66.32
2023-04-15T22:42:58.599Z,66.14
2023-04-15T22:45:25.484Z,66.36
2023-04-15T22:47:52.268Z,66.45
2023-04-15T22:50:19.037Z,66.69
2023-04-15T22:52:48.180Z,66.77
2023-04-15T22:55:14.987Z,66.71
2023-04-15T22:57:41.688Z,66.86
2023-04-15T23:00:09.302Z,66.80
2023-04-15T23:02:36.222Z,66.76
2023-04-15T23:05:11.452Z,66.87
2023-04-15T23:07:40.092Z,66.82
2023-04-15T23:10:08.079Z,66.93
2023-04-15T23:12:34.925Z,67.10
2023-04-15T23:15:01.738Z,67.01
2023-04-15T23:17:28.455Z,67.38
2023-04-15T23:19:55.095Z,67.49
2023-04-15T23:22:21.945Z,67.30
2023-04-15T23:24:48.641Z,67.37
2023-04-15T23:27:15.390Z,67.52
2023-04-15T23:29:42.131Z,67.47
2023-04-15T23:32:08.713Z,67.55
2023-04-15T23:34:35.434Z,67.83
2023-04-15T23:37:02.501Z,67.67
2023-04-15T23:39:30.537Z,67.56
2023-04-15T23:41:57.258Z,67.78
2023-04-15T23:44:23.913Z,67.70
2023-04-15T23:46:51.383Z,67.99
2023-04-15T23:49:20.089Z,67.95
2023-04-15T23:51:47.268Z,68.29
2023-04-15T23:54:14.082Z,68.41
2023-04-15T23:56:40.760Z,68.28
2023-04-15T23:59:07.817Z,68.18
